createdAt,value
2022-07-29T00:02:27.755Z,3.00
2022-07-29T00:04:54.894Z,2.50
2022-07-29T00:07:21.902Z,2.92
2022-07-29T00:09:51.361Z,2.90
2022-07-29T00:12:26.136Z,2.78
2022-07-29T00:14:57.932Z,3.05
2022-07-29T00:17:25.480Z,2.63
2022-07-29T00:19:52.979Z,2.53
2022-07-29T00:22:20.612Z,2.70
2022-07-29T00:24:50.562Z,2.60
2022-07-29T00:27:18.199Z,3.03
2022-07-29T00:29:45.153Z,2.70
2022-07-29T00:32:12.144Z,2.92
2022-07-29T00:34:57.398Z,2.70
2022-07-29T00:37:24.573Z,2.65
2022-07-29T00:39:51.521Z,3.05
2022-07-29T00:42:18.719Z,3.20
2022-07-29T00:44:45.618Z,2.80
2022-07-29T00:47:13.391Z,2.78
2022-07-29T00:49:42.210Z,2.95
2022-07-29T00:52:10.589Z,2.97
2022-07-29T00:54:44.815Z,2.57
2022-07-29T00:57:12.932Z,2.97
2022-07-29T00:59:41.543Z,2.53
2022-07-29T01:02:08.546Z,3.00
2022-07-29T01:04:35.655Z,2.83
2022-07-29T01:07:03.993Z,3.07
2022-07-29T01:09:46.342Z,3.00
2022-07-29T01:12:25.392Z,2.70
2022-07-29T01:14:54.541Z,3.08
2022-07-29T01:17:29.800Z,3.00
2022-07-29T01:20:13.721Z,3.10
2022-07-29T01:23:08.200Z,3.00
2022-07-29T01:25:59.537Z,3.00
2022-07-29T01:28:54.033Z,2.90
2022-07-29T01:31:56.592Z,2.80
2022-07-29T01:34:49.627Z,2.60
2022-07-29T01:37:20.483Z,3.30
2022-07-29T01:39:50.340Z,2.97
2022-07-29T01:42:37.871Z,2.83
2022-07-29T01:45:15.468Z,3.37
2022-07-29T01:48:01.366Z,3.20
2022-07-29T01:50:35.282Z,3.10
2022-07-29T01:53:05.675Z,2.83
2022-07-29T01:55:37.605Z,3.28
2022-07-29T01:58:07.068Z,3.37
2022-07-29T02:00:35.719Z,3.27
2022-07-29T02:03:08.507Z,3.53
2022-07-29T02:05:37.213Z,3.30
2022-07-29T02:08:06.193Z,3.47
2022-07-29T02:10:35.988Z,3.20
2022-07-29T02:13:04.381Z,3.40
2022-07-29T02:15:34.105Z,3.28
2022-07-29T02:18:09.359Z,3.25
2022-07-29T02:20:38.861Z,3.20
2022-07-29T02:23:07.163Z,3.40
2022-07-29T02:25:38.186Z,3.33
2022-07-29T02:28:08.645Z,3.05
2022-07-29T02:30:42.983Z,3.37
2022-07-29T02:33:13.614Z,3.12
2022-07-29T02:35:42.882Z,3.37
2022-07-29T02:38:34.303Z,3.43
2022-07-29T02:41:21.016Z,3.17
2022-07-29T02:43:56.229Z,3.72
2022-07-29T02:46:31.754Z,3.08
2022-07-29T02:49:18.337Z,3.25
2022-07-29T02:51:55.004Z,3.40
2022-07-29T02:54:38.715Z,3.58
2022-07-29T02:57:54.345Z,3.37
2022-07-29T03:00:24.885Z,3.30
2022-07-29T03:02:55.814Z,3.20
2022-07-29T03:05:23.853Z,3.63
2022-07-29T03:07:56.605Z,3.42
2022-07-29T03:10:24.481Z,3.40
2022-07-29T03:12:51.687Z,3.60
2022-07-29T03:15:19.946Z,3.90
2022-07-29T03:17:47.505Z,4.00
2022-07-29T03:20:14.978Z,3.30
2022-07-29T03:22:48.143Z,3.58
2022-07-29T03:25:17.275Z,3.65
2022-07-29T03:27:44.661Z,3.28
2022-07-29T03:30:18.442Z,3.40
2022-07-29T03:32:49.664Z,3.65
2022-07-29T03:35:23.644Z,4.07
2022-07-29T03:37:50.800Z,3.62
2022-07-29T03:40:27.082Z,3.90
2022-07-29T03:42:55.978Z,3.53
2022-07-29T03:45:24.136Z,3.42
2022-07-29T03:48:00.622Z,3.85
2022-07-29T03:50:29.952Z,3.85
2022-07-29T03:52:57.294Z,3.75
2022-07-29T03:55:24.660Z,3.77
2022-07-29T03:57:52.152Z,3.53
2022-07-29T04:00:20.602Z,3.67
2022-07-29T04:02:49.729Z,3.20
2022-07-29T04:05:17.767Z,3.92
2022-07-29T04:07:48.954Z,3.60
2022-07-29T04:10:16.825Z,3.50
2022-07-29T04:12:44.226Z,3.75
2022-07-29T04:15:12.171Z,3.92
2022-07-29T04:17:39.708Z,3.70
2022-07-29T04:20:07.135Z,3.73
2022-07-29T04:22:35.212Z,4.30
2022-07-29T04:25:04.263Z,3.47
2022-07-29T04:27:31.631Z,3.42
2022-07-29T04:29:58.712Z,3.42
2022-07-29T04:32:26.856Z,3.80
2022-07-29T04:34:53.762Z,3.42
2022-07-29T04:37:20.742Z,3.67
2022-07-29T04:39:47.615Z,3.42
2022-07-29T04:42:14.561Z,3.75
2022-07-29T04:44:42.905Z,3.63
2022-07-29T04:47:10.390Z,3.42
2022-07-29T04:49:40.594Z,3.47
2022-07-29T04:52:07.801Z,3.55
2022-07-29T04:54:34.681Z,3.37
2022-07-29T04:57:01.667Z,3.80
2022-07-29T04:59:28.808Z,3.85
2022-07-29T05:01:55.805Z,3.95
2022-07-29T05:04:22.782Z,3.60
2022-07-29T05:06:50.396Z,3.42
2022-07-29T05:09:17.275Z,3.90
2022-07-29T05:11:44.186Z,3.83
2022-07-29T05:14:11.138Z,4.50
2022-07-29T05:16:38.118Z,3.58
2022-07-29T05:19:05.013Z,3.50
2022-07-29T05:21:31.883Z,4.50
2022-07-29T05:23:58.784Z,4.10
2022-07-29T05:26:25.650Z,3.70
2022-07-29T05:28:52.540Z,3.60
2022-07-29T05:31:19.577Z,3.90
2022-07-29T05:33:46.753Z,3.70
2022-07-29T05:36:13.725Z,3.45
2022-07-29T05:38:40.632Z,3.60
2022-07-29T05:41:07.830Z,3.62
2022-07-29T05:43:34.671Z,3.40
2022-07-29T05:46:01.877Z,3.77
2022-07-29T05:48:29.058Z,3.95
2022-07-29T05:50:56.126Z,3.58
2022-07-29T05:53:23.459Z,3.47
2022-07-29T05:55:51.262Z,3.53
2022-07-29T05:58:18.648Z,3.73
2022-07-29T06:00:45.576Z,4.62
2022-07-29T06:03:12.809Z,3.60
2022-07-29T06:05:39.693Z,3.65
2022-07-29T06:08:09.558Z,3.70
2022-07-29T06:10:37.117Z,3.80
2022-07-29T06:13:04.261Z,3.55
2022-07-29T06:15:31.496Z,3.90
2022-07-29T06:17:59.840Z,3.50
2022-07-29T06:20:32.901Z,3.70
2022-07-29T06:23:00.623Z,3.37
2022-07-29T06:25:30.352Z,3.78
2022-07-29T06:27:58.543Z,3.72
2022-07-29T06:30:25.509Z,4.07
2022-07-29T06:32:52.813Z,3.65
2022-07-29T06:35:39.193Z,3.50
2022-07-29T06:38:14.919Z,3.58
2022-07-29T06:41:07.063Z,3.53
2022-07-29T06:43:52.341Z,3.70
2022-07-29T06:46:22.468Z,3.80
2022-07-29T06:48:49.921Z,3.80
2022-07-29T06:51:22.250Z,3.90
2022-07-29T06:54:00.004Z,3.70
2022-07-29T06:56:38.927Z,3.25
2022-07-29T06:59:12.133Z,4.35
2022-07-29T07:01:41.968Z,4.00
2022-07-29T07:04:10.164Z,3.70
2022-07-29T07:06:37.245Z,4.03
2022-07-29T07:09:04.405Z,4.03
2022-07-29T07:11:31.672Z,3.72
2022-07-29T07:14:02.997Z,4.00
2022-07-29T07:16:30.340Z,3.92
2022-07-29T07:18:57.270Z,3.70
2022-07-29T07:21:24.200Z,3.60
2022-07-29T07:23:51.220Z,3.95
2022-07-29T07:26:18.229Z,3.27
2022-07-29T07:28:45.192Z,3.78
2022-07-29T07:31:13.231Z,3.75
2022-07-29T07:33:40.970Z,3.85
2022-07-29T07:36:07.974Z,4.07
2022-07-29T07:38:35.079Z,3.83
2022-07-29T07:41:02.347Z,3.70
2022-07-29T07:43:29.320Z,3.62
2022-07-29T07:45:56.300Z,4.00
2022-07-29T07:48:23.220Z,3.75
2022-07-29T07:50:50.521Z,3.80
2022-07-29T07:53:17.653Z,3.85
2022-07-29T07:56:09.272Z,3.90
2022-07-29T07:58:32.000Z,3.90
2022-07-29T08:00:59.035Z,3.87
2022-07-29T08:03:25.925Z,3.40
2022-07-29T08:05:52.998Z,3.97
2022-07-29T08:08:20.064Z,4.07
2022-07-29T08:10:53.288Z,3.78
2022-07-29T08:13:26.453Z,3.55
2022-07-29T08:16:00.866Z,3.90
2022-07-29T08:18:30.164Z,3.80
2022-07-29T08:20:57.845Z,4.00
2022-07-29T08:23:25.248Z,3.83
2022-07-29T08:25:52.376Z,3.28
2022-07-29T08:28:25.883Z,4.13
2022-07-29T08:30:53.314Z,3.75
2022-07-29T08:33:20.239Z,3.70
2022-07-29T08:35:47.260Z,3.80
2022-07-29T08:38:14.342Z,3.83
2022-07-29T08:40:41.210Z,3.90
2022-07-29T08:43:09.644Z,4.12
2022-07-29T08:45:48.603Z,3.60
2022-07-29T08:48:25.817Z,3.62
2022-07-29T08:50:57.558Z,3.70
2022-07-29T08:53:27.814Z,3.55
2022-07-29T08:55:55.806Z,3.80
2022-07-29T08:58:25.245Z,3.40
2022-07-29T09:00:55.778Z,3.90
2022-07-29T09:03:30.827Z,3.80
2022-07-29T09:05:59.627Z,3.70
2022-07-29T09:08:27.216Z,3.60
2022-07-29T09:10:54.857Z,3.50
2022-07-29T09:13:22.034Z,3.60
2022-07-29T09:15:49.043Z,3.33
2022-07-29T09:18:34.272Z,3.80
2022-07-29T09:21:20.140Z,3.67
2022-07-29T09:24:06.563Z,3.92
2022-07-29T09:26:44.538Z,3.97
2022-07-29T09:29:14.468Z,3.90
2022-07-29T09:31:46.667Z,3.53
2022-07-29T09:34:15.823Z,3.50
2022-07-29T09:36:48.693Z,3.60
2022-07-29T09:39:27.154Z,3.28
2022-07-29T09:41:56.895Z,3.40
2022-07-29T09:44:24.574Z,3.40
2022-07-29T09:47:08.196Z,3.97
2022-07-29T09:49:36.654Z,3.62
2022-07-29T09:52:09.364Z,3.72
2022-07-29T09:54:40.302Z,3.17
2022-07-29T09:57:10.822Z,3.50
2022-07-29T09:59:50.007Z,3.92
2022-07-29T10:02:23.533Z,4.07
2022-07-29T10:04:50.900Z,3.47
2022-07-29T10:07:17.769Z,3.60
2022-07-29T10:09:57.443Z,3.87
2022-07-29T10:12:25.284Z,3.90
2022-07-29T10:14:52.565Z,3.53
2022-07-29T10:17:20.514Z,3.75
2022-07-29T10:19:49.925Z,3.30
2022-07-29T10:22:43.375Z,3.73
2022-07-29T10:25:04.728Z,3.45
2022-07-29T10:27:32.968Z,3.53
2022-07-29T10:29:59.937Z,3.87
2022-07-29T10:32:57.612Z,3.80
2022-07-29T10:35:35.479Z,4.03
2022-07-29T10:38:22.841Z,3.37
2022-07-29T10:41:44.058Z,3.40
2022-07-29T10:44:23.168Z,3.55
2022-07-29T10:46:52.785Z,4.03
2022-07-29T10:49:31.268Z,3.20
2022-07-29T10:52:00.236Z,3.25
2022-07-29T10:54:36.854Z,3.25
2022-07-29T10:57:53.803Z,3.62
2022-07-29T11:00:16.727Z,3.58
2022-07-29T11:02:52.949Z,3.70
2022-07-29T11:05:21.775Z,3.70
2022-07-29T11:08:19.935Z,2.97
2022-07-29T11:10:49.908Z,3.40
2022-07-29T11:13:44.364Z,2.80
2022-07-29T11:16:11.449Z,3.53
2022-07-29T11:19:14.093Z,3.67
2022-07-29T11:22:05.306Z,3.30
2022-07-29T11:30:13.042Z,3.40
2022-07-29T11:32:48.632Z,3.10
2022-07-29T11:35:36.973Z,3.05
2022-07-29T11:38:28.573Z,3.25
2022-07-29T11:41:27.777Z,3.40
2022-07-29T11:43:58.421Z,3.33
2022-07-29T11:46:46.808Z,3.50
2022-07-29T11:49:15.488Z,2.97
2022-07-29T11:51:48.364Z,3.08
2022-07-29T11:54:27.475Z,2.95
2022-07-29T11:56:55.038Z,3.50
2022-07-29T11:59:22.431Z,3.70
2022-07-29T12:02:18.503Z,3.50
2022-07-29T12:04:51.163Z,3.42
2022-07-29T12:07:01.334Z,3.47
2022-07-29T12:07:03.797Z,3.22
2022-07-29T12:07:18.617Z,2.72
2022-07-29T12:09:52.871Z,3.27
2022-07-29T12:12:24.624Z,3.37
2022-07-29T12:14:52.018Z,3.45
2022-07-29T12:17:33.397Z,3.40
2022-07-29T12:20:03.880Z,3.92
2022-07-29T12:22:41.468Z,3.70
2022-07-29T12:25:32.307Z,3.45
2022-07-29T12:28:03.635Z,3.15
2022-07-29T12:30:40.009Z,3.62
2022-07-29T12:33:29.414Z,3.37
2022-07-29T12:36:06.942Z,3.67
2022-07-29T12:38:41.292Z,3.20
2022-07-29T12:41:09.555Z,3.20
2022-07-29T12:43:36.610Z,3.33
2022-07-29T12:46:15.080Z,3.08
2022-07-29T12:48:43.873Z,3.67
2022-07-29T12:51:15.325Z,3.33
2022-07-29T12:53:42.541Z,3.33
2022-07-29T12:59:18.705Z,2.90
2022-07-29T13:01:49.012Z,3.27
2022-07-29T13:04:30.998Z,3.20
2022-07-29T13:07:09.242Z,3.55
2022-07-29T13:09:49.517Z,3.20
2022-07-29T13:12:16.574Z,3.58
2022-07-29T13:14:48.144Z,3.60
2022-07-29T13:17:28.412Z,3.58
2022-07-29T13:20:13.698Z,3.70
2022-07-29T13:22:42.197Z,3.60
2022-07-29T13:25:10.736Z,3.30
2022-07-29T13:27:40.604Z,3.27
2022-07-29T13:30:09.639Z,3.22
2022-07-29T13:32:37.406Z,3.17
2022-07-29T13:35:07.547Z,3.03
2022-07-29T13:37:36.121Z,3.50
2022-07-29T13:40:04.309Z,3.90
2022-07-29T13:42:32.784Z,3.37
2022-07-29T13:45:00.358Z,3.40
2022-07-29T13:47:32.185Z,3.08
2022-07-29T13:50:01.903Z,3.87
2022-07-29T13:52:29.495Z,3.53
2022-07-29T13:54:57.415Z,3.22
2022-07-29T13:57:24.399Z,3.05
2022-07-29T13:59:54.491Z,2.80
2022-07-29T14:02:25.742Z,3.40
2022-07-29T14:04:54.568Z,3.57
2022-07-29T14:07:22.372Z,3.70
2022-07-29T14:09:49.320Z,3.40
2022-07-29T14:12:16.339Z,3.50
2022-07-29T14:14:43.317Z,3.60
2022-07-29T14:17:12.717Z,3.27
2022-07-29T14:19:40.198Z,3.60
2022-07-29T14:22:08.959Z,3.15
2022-07-29T14:24:37.246Z,3.33
2022-07-29T14:27:09.009Z,3.47
2022-07-29T14:29:38.638Z,2.83
2022-07-29T14:32:11.511Z,3.25
2022-07-29T14:34:39.342Z,3.20
2022-07-29T14:37:07.212Z,3.37
2022-07-29T14:39:38.184Z,2.90
2022-07-29T14:42:10.087Z,3.37
2022-07-29T14:44:39.624Z,3.37
2022-07-29T14:47:07.571Z,3.60
2022-07-29T14:49:35.357Z,3.53
2022-07-29T14:52:02.205Z,3.37
2022-07-29T14:54:29.055Z,3.20
2022-07-29T14:56:58.337Z,3.37
2022-07-29T14:59:26.169Z,3.35
2022-07-29T15:01:53.312Z,3.42
2022-07-29T15:04:20.444Z,3.75
2022-07-29T15:06:47.368Z,3.90
2022-07-29T15:09:14.633Z,3.72
2022-07-29T15:11:41.492Z,4.10
2022-07-29T15:14:08.473Z,3.60
2022-07-29T15:16:41.916Z,4.18
2022-07-29T15:19:11.666Z,4.03
2022-07-29T15:21:47.923Z,4.18
2022-07-29T15:24:15.953Z,4.20
2022-07-29T15:26:44.997Z,4.00
2022-07-29T15:29:12.192Z,3.78
2022-07-29T15:31:40.714Z,3.77
2022-07-29T15:34:08.588Z,3.67
2022-07-29T15:36:52.128Z,3.53
2022-07-29T15:39:20.585Z,3.22
2022-07-29T15:41:47.634Z,3.62
2022-07-29T15:44:14.607Z,3.20
2022-07-29T15:47:00.576Z,3.30
2022-07-29T15:49:47.403Z,3.22
2022-07-29T15:52:25.506Z,3.05
2022-07-29T15:54:55.462Z,3.22
2022-07-29T15:57:23.035Z,3.03
2022-07-29T15:59:50.454Z,3.42
2022-07-29T16:02:17.886Z,3.33
2022-07-29T16:04:44.875Z,3.42
2022-07-29T16:07:11.846Z,3.55
2022-07-29T16:09:39.060Z,3.00
2022-07-29T16:12:14.858Z,3.17
2022-07-29T16:14:43.867Z,3.10
2022-07-29T16:17:14.541Z,3.40
2022-07-29T16:19:43.648Z,3.35
2022-07-29T16:22:10.817Z,3.63
2022-07-29T16:24:39.718Z,3.97
2022-07-29T16:27:07.546Z,3.70
2022-07-29T16:29:34.909Z,3.37
2022-07-29T16:32:02.000Z,3.53
2022-07-29T16:34:29.729Z,3.07
2022-07-29T16:36:56.589Z,3.65
2022-07-29T16:39:23.591Z,3.40
2022-07-29T16:41:50.726Z,3.17
2022-07-29T16:44:17.924Z,2.85
2022-07-29T16:46:45.485Z,3.30
2022-07-29T16:49:19.244Z,3.00
2022-07-29T16:51:47.920Z,3.20
2022-07-29T16:54:15.207Z,2.85
2022-07-29T16:56:42.071Z,3.20
2022-07-29T16:59:09.006Z,4.03
2022-07-29T17:01:35.973Z,3.90
2022-07-29T17:04:06.360Z,3.95
2022-07-29T17:06:38.359Z,3.90
2022-07-29T17:09:07.706Z,3.83
2022-07-29T17:11:52.780Z,3.60
2022-07-29T17:14:26.963Z,3.60
2022-07-29T17:17:01.125Z,3.72
2022-07-29T17:19:33.991Z,4.07
2022-07-29T17:22:11.739Z,3.33
2022-07-29T17:24:42.761Z,3.30
2022-07-29T17:27:10.487Z,3.78
2022-07-29T17:29:39.155Z,4.00
2022-07-29T17:32:07.595Z,3.60
2022-07-29T17:34:42.160Z,3.30
2022-07-29T17:37:10.825Z,3.70
2022-07-29T17:39:40.894Z,3.45
2022-07-29T17:42:14.480Z,3.47
2022-07-29T17:44:41.663Z,3.72
2022-07-29T17:47:15.713Z,3.78
2022-07-29T17:49:45.102Z,3.83
2022-07-29T17:52:12.122Z,3.60
2022-07-29T17:54:39.028Z,3.50
2022-07-29T17:57:06.015Z,3.50
2022-07-29T17:59:33.010Z,3.83
2022-07-29T18:02:00.168Z,3.70
2022-07-29T18:04:28.704Z,3.50
2022-07-29T18:06:55.923Z,3.90
2022-07-29T18:09:23.063Z,3.35
2022-07-29T18:11:49.910Z,3.25
2022-07-29T18:14:17.163Z,3.60
2022-07-29T18:16:44.173Z,3.25
2022-07-29T18:19:11.245Z,3.03
2022-07-29T18:21:45.978Z,3.05
2022-07-29T18:24:19.031Z,3.30
2022-07-29T18:26:46.043Z,3.10
2022-07-29T18:29:12.971Z,2.80
2022-07-29T18:31:41.215Z,3.35
2022-07-29T18:34:08.277Z,2.92
2022-07-29T18:36:35.278Z,3.05
2022-07-29T18:39:02.272Z,3.00
2022-07-29T18:41:29.298Z,2.80
2022-07-29T18:43:56.302Z,3.10
2022-07-29T18:46:23.245Z,3.17
2022-07-29T18:48:52.914Z,3.00
2022-07-29T18:51:19.822Z,3.43
2022-07-29T18:53:46.924Z,3.47
2022-07-29T18:56:14.090Z,3.17
2022-07-29T18:58:41.010Z,2.87
2022-07-29T19:01:07.963Z,3.22
2022-07-29T19:03:34.976Z,3.10
2022-07-29T19:06:01.939Z,2.83
2022-07-29T19:08:29.141Z,3.05
2022-07-29T19:10:56.160Z,2.87
2022-07-29T19:13:23.211Z,3.20
2022-07-29T19:15:50.197Z,3.33
2022-07-29T19:18:17.561Z,3.15
2022-07-29T19:20:44.590Z,3.45
2022-07-29T19:23:11.691Z,3.10
2022-07-29T19:25:53.075Z,3.40
2022-07-29T19:28:22.072Z,3.03
2022-07-29T19:30:49.613Z,3.40
2022-07-29T19:33:17.774Z,3.67
2022-07-29T19:35:45.906Z,2.97
2022-07-29T19:38:14.621Z,2.97
2022-07-29T19:40:41.634Z,3.70
2022-07-29T19:43:49.796Z,3.50
2022-07-29T19:45:56.768Z,3.58
2022-07-29T19:48:23.704Z,3.83
2022-07-29T19:50:50.621Z,3.22
2022-07-29T19:53:17.583Z,3.83
2022-07-29T19:55:44.482Z,3.45
2022-07-29T19:58:11.380Z,3.35
2022-07-29T20:00:38.258Z,3.30
2022-07-29T20:03:07.230Z,3.80
2022-07-29T20:05:34.221Z,3.17
2022-07-29T20:08:01.190Z,3.70
2022-07-29T20:10:28.505Z,3.37
2022-07-29T20:12:55.492Z,3.28
2022-07-29T20:15:22.642Z,3.25
2022-07-29T20:17:51.854Z,3.23
2022-07-29T20:20:23.236Z,3.30
2022-07-29T20:22:50.224Z,3.28
2022-07-29T20:25:17.552Z,3.10
2022-07-29T20:27:44.864Z,3.00
2022-07-29T20:30:15.157Z,3.27
2022-07-29T20:32:42.317Z,3.10
2022-07-29T20:35:13.464Z,3.00
2022-07-29T20:37:52.356Z,3.55
2022-07-29T20:40:24.864Z,3.33
2022-07-29T20:42:52.085Z,3.23
2022-07-29T20:45:20.108Z,3.05
2022-07-29T20:47:47.129Z,2.92
2022-07-29T20:50:14.163Z,3.00
2022-07-29T20:52:41.475Z,3.30
2022-07-29T20:55:09.100Z,3.10
2022-07-29T20:57:39.017Z,2.85
2022-07-29T21:00:08.735Z,2.90
2022-07-29T21:02:36.769Z,3.03
2022-07-29T21:05:04.574Z,3.20
2022-07-29T21:07:32.016Z,2.80
2022-07-29T21:09:59.077Z,2.95
2022-07-29T21:12:26.035Z,2.87
2022-07-29T21:14:52.942Z,2.90
2022-07-29T21:17:22.621Z,3.53
2022-07-29T21:19:55.355Z,3.13
2022-07-29T21:22:22.543Z,2.90
2022-07-29T21:24:49.800Z,3.20
2022-07-29T21:27:38.388Z,3.30
2022-07-29T21:30:07.738Z,3.20
2022-07-29T21:32:35.014Z,2.90
2022-07-29T21:35:01.908Z,3.03
2022-07-29T21:37:29.050Z,2.80
2022-07-29T21:39:57.177Z,3.10
2022-07-29T21:42:24.473Z,3.30
2022-07-29T21:44:51.675Z,3.00
2022-07-29T21:47:18.699Z,2.87
2022-07-29T21:49:46.609Z,3.20
2022-07-29T21:52:14.255Z,3.03
2022-07-29T21:54:41.894Z,3.15
2022-07-29T21:57:09.507Z,3.03
2022-07-29T21:59:36.786Z,3.20
2022-07-29T22:02:03.798Z,2.95
2022-07-29T22:04:31.271Z,3.30
2022-07-29T22:06:58.954Z,3.30
2022-07-29T22:09:26.221Z,3.30
2022-07-29T22:11:54.104Z,3.10
2022-07-29T22:14:21.297Z,3.55
2022-07-29T22:16:48.569Z,2.90
2022-07-29T22:19:15.704Z,3.20
2022-07-29T22:21:42.778Z,3.70
2022-07-29T22:24:10.706Z,3.20
2022-07-29T22:26:38.383Z,3.45
2022-07-29T22:29:05.759Z,3.40
2022-07-29T22:31:32.626Z,3.62
2022-07-29T22:33:59.570Z,3.63
2022-07-29T22:36:27.021Z,3.33
2022-07-29T22:38:53.960Z,3.37
2022-07-29T22:41:20.860Z,3.25
2022-07-29T22:43:47.754Z,3.10
2022-07-29T22:46:14.753Z,3.70
2022-07-29T22:48:41.766Z,3.53
2022-07-29T22:51:08.828Z,3.58
2022-07-29T22:53:36.995Z,3.22
2022-07-29T22:56:06.536Z,3.33
2022-07-29T22:58:33.476Z,2.90
2022-07-29T23:01:00.596Z,2.80
2022-07-29T23:03:27.590Z,3.10
2022-07-29T23:05:54.555Z,3.35
2022-07-29T23:08:21.453Z,3.37
2022-07-29T23:10:48.464Z,2.80
2022-07-29T23:13:15.529Z,2.80
2022-07-29T23:15:42.545Z,3.03
2022-07-29T23:18:09.562Z,2.78
2022-07-29T23:20:36.554Z,3.25
2022-07-29T23:23:03.474Z,2.93
2022-07-29T23:25:30.512Z,2.75
2022-07-29T23:27:57.503Z,2.75
2022-07-29T23:30:24.564Z,3.00
2022-07-29T23:32:51.524Z,2.80
2022-07-29T23:35:18.683Z,3.10
2022-07-29T23:37:45.783Z,3.00
2022-07-29T23:40:14.718Z,3.30
2022-07-29T23:42:43.021Z,3.20
2022-07-29T23:45:11.279Z,3.20
2022-07-29T23:47:38.367Z,3.37
2022-07-29T23:50:07.003Z,3.05
2022-07-29T23:52:33.981Z,3.30
2022-07-29T23:55:37.465Z,3.20
2022-07-29T23:57:50.148Z,3.45
